PBD6943 UUEE-URSS
Flight info
| Callsign | PBD6943 |
|---|---|
| Flight time | 4h 2m |
| Altitude | 33000 |
| Route | RILPO3H RILPO DCT DIPGO DCT BUDOM/K0824F320 DCT NIMTA/K0820F330 DCT MOLED N50 LIDUS/K0824F340 G242 ZG/K0824F330 DCT ITAKA/K0833F340 DCT OBBUD DCT AMKOL DCT GOTIK DCT MEMZA DCT VENFO DCT BINOL BINOL1K |
| Aircraft | B738/M-SDE2E3FGHIRWXY/LB1 |
Departure
| Time | 2026-05-07 17:06 |
|---|---|
| Airport | Sheremetyevo International Airport (UUEE) |
Arrival
| Time | 2026-05-07 21:09 |
|---|---|
| Airport | Sochi International Airport (URSS) |
| Time | Latitude | Longitude | Altitude | Speed | Heading |
|---|---|---|---|---|---|
| 2026-05-07 16:23 | 55.96462 | 37.40105 | 640 ft | 0 kts | 256° |
| 2026-05-07 16:47 | 55.96462 | 37.40104 | 638 ft | 2 kts | 256° |
| 2026-05-07 16:47 | 55.96452 | 37.40038 | 644 ft | 8 kts | 253° |
| 2026-05-07 16:47 | 55.96471 | 37.39950 | 638 ft | 9 kts | 338° |
| 2026-05-07 16:48 | 55.96528 | 37.39920 | 640 ft | 9 kts | 345° |
| 2026-05-07 16:48 | 55.96585 | 37.39893 | 642 ft | 8 kts | 345° |
| 2026-05-07 16:48 | 55.96639 | 37.39866 | 638 ft | 8 kts | 345° |
| 2026-05-07 16:48 | 55.96668 | 37.39857 | 643 ft | 1 kts | 358° |
| 2026-05-07 16:49 | 55.96677 | 37.39862 | 643 ft | 1 kts | 26° |
| 2026-05-07 16:49 | 55.96683 | 37.39873 | 638 ft | 1 kts | 46° |
| 2026-05-07 16:49 | 55.96688 | 37.39887 | 638 ft | 2 kts | 59° |
| 2026-05-07 16:49 | 55.96697 | 37.39936 | 642 ft | 7 kts | 74° |
| 2026-05-07 16:50 | 55.96709 | 37.40021 | 641 ft | 7 kts | 75° |
| 2026-05-07 16:50 | 55.96722 | 37.40104 | 638 ft | 7 kts | 75° |
| 2026-05-07 16:50 | 55.96734 | 37.40185 | 638 ft | 7 kts | 75° |
| 2026-05-07 16:50 | 55.96751 | 37.40295 | 640 ft | 12 kts | 75° |
| 2026-05-07 16:51 | 55.96778 | 37.40479 | 638 ft | 18 kts | 75° |
| 2026-05-07 16:51 | 55.96815 | 37.40728 | 641 ft | 23 kts | 75° |
| 2026-05-07 16:51 | 55.96862 | 37.41032 | 640 ft | 26 kts | 76° |
| 2026-05-07 16:51 | 55.96906 | 37.41335 | 641 ft | 24 kts | 75° |
| 2026-05-07 16:52 | 55.96949 | 37.41618 | 640 ft | 23 kts | 75° |
| 2026-05-07 16:52 | 55.96994 | 37.41917 | 638 ft | 28 kts | 75° |
| 2026-05-07 16:52 | 55.97050 | 37.42287 | 641 ft | 33 kts | 75° |
| 2026-05-07 16:52 | 55.97107 | 37.42677 | 640 ft | 31 kts | 75° |
| 2026-05-07 16:53 | 55.97147 | 37.42940 | 645 ft | 12 kts | 75° |
| 2026-05-07 16:53 | 55.97175 | 37.43042 | 642 ft | 5 kts | 34° |
| 2026-05-07 16:53 | 55.97211 | 37.43042 | 641 ft | 5 kts | 347° |
| 2026-05-07 16:53 | 55.97261 | 37.43020 | 638 ft | 10 kts | 346° |
| 2026-05-07 16:54 | 55.97345 | 37.42973 | 640 ft | 11 kts | 326° |
| 2026-05-07 16:54 | 55.97353 | 37.42900 | 640 ft | 6 kts | 254° |
| 2026-05-07 16:54 | 55.97353 | 37.42896 | 640 ft | 0 kts | 254° |
| 2026-05-07 16:56 | 55.97340 | 37.42820 | 642 ft | 28 kts | 255° |
| 2026-05-07 16:57 | 55.97299 | 37.42543 | 641 ft | 0 kts | 256° |
| 2026-05-07 16:57 | 55.97299 | 37.42542 | 641 ft | 0 kts | 256° |
| 2026-05-07 16:57 | 55.97296 | 37.42527 | 641 ft | 3 kts | 256° |
| 2026-05-07 16:58 | 55.97288 | 37.42465 | 639 ft | 7 kts | 256° |
| 2026-05-07 16:58 | 55.97270 | 37.42328 | 640 ft | 16 kts | 255° |
| 2026-05-07 16:58 | 55.97239 | 37.42124 | 640 ft | 18 kts | 255° |
| 2026-05-07 16:58 | 55.97204 | 37.41897 | 639 ft | 19 kts | 254° |
| 2026-05-07 16:59 | 55.97166 | 37.41658 | 636 ft | 21 kts | 256° |
| 2026-05-07 16:59 | 55.97139 | 37.41470 | 643 ft | 12 kts | 255° |
| 2026-05-07 16:59 | 55.97108 | 37.41391 | 638 ft | 8 kts | 197° |
| 2026-05-07 16:59 | 55.97039 | 37.41407 | 646 ft | 11 kts | 164° |
| 2026-05-07 17:00 | 55.96965 | 37.41442 | 641 ft | 9 kts | 165° |
| 2026-05-07 17:00 | 55.96933 | 37.41502 | 638 ft | 7 kts | 92° |
| 2026-05-07 17:00 | 55.96947 | 37.41603 | 639 ft | 9 kts | 75° |
| 2026-05-07 17:00 | 55.96966 | 37.41727 | 640 ft | 11 kts | 75° |
| 2026-05-07 17:01 | 55.96987 | 37.41873 | 640 ft | 13 kts | 76° |
| 2026-05-07 17:01 | 55.97011 | 37.42043 | 642 ft | 15 kts | 75° |
| 2026-05-07 17:01 | 55.97039 | 37.42231 | 639 ft | 17 kts | 75° |
| 2026-05-07 17:01 | 55.97069 | 37.42435 | 642 ft | 17 kts | 76° |
| 2026-05-07 17:02 | 55.97099 | 37.42633 | 638 ft | 16 kts | 74° |
| 2026-05-07 17:02 | 55.97130 | 37.42823 | 642 ft | 16 kts | 73° |
| 2026-05-07 17:02 | 55.97152 | 37.42978 | 640 ft | 8 kts | 77° |
| 2026-05-07 17:02 | 55.97181 | 37.43053 | 643 ft | 8 kts | 14° |
| 2026-05-07 17:03 | 55.97215 | 37.43042 | 638 ft | 0 kts | 339° |
| 2026-05-07 17:03 | 55.97223 | 37.43037 | 638 ft | 4 kts | 344° |
| 2026-05-07 17:04 | 55.97263 | 37.43018 | 638 ft | 8 kts | 345° |
| 2026-05-07 17:04 | 55.97333 | 37.42984 | 639 ft | 9 kts | 340° |
| 2026-05-07 17:04 | 55.97356 | 37.42929 | 640 ft | 9 kts | 278° |
| 2026-05-07 17:04 | 55.97352 | 37.42892 | 640 ft | 0 kts | 254° |
| 2026-05-07 17:05 | 55.97346 | 37.42859 | 640 ft | 14 kts | 251° |
| 2026-05-07 17:05 | 55.97287 | 37.42465 | 641 ft | 58 kts | 255° |
| 2026-05-07 17:05 | 55.97123 | 37.41371 | 639 ft | 122 kts | 255° |
| 2026-05-07 17:05 | 55.96861 | 37.39585 | 656 ft | 173 kts | 256° |
| 2026-05-07 17:06 | 55.96526 | 37.37385 | 1111 ft | 188 kts | 254° |
| 2026-05-07 17:06 | 55.96160 | 37.35155 | 1984 ft | 182 kts | 254° |
| 2026-05-07 17:06 | 55.95822 | 37.33020 | 2761 ft | 177 kts | 255° |
| 2026-05-07 17:06 | 55.95495 | 37.30921 | 3432 ft | 176 kts | 255° |
| 2026-05-07 17:07 | 55.95165 | 37.28812 | 3981 ft | 182 kts | 255° |
| 2026-05-07 17:07 | 55.94811 | 37.26507 | 4134 ft | 202 kts | 257° |
| 2026-05-07 17:07 | 55.94922 | 37.23943 | 4268 ft | 223 kts | 295° |
| 2026-05-07 17:07 | 55.96076 | 37.21993 | 4689 ft | 240 kts | 329° |
| 2026-05-07 17:08 | 55.97743 | 37.21202 | 5010 ft | 264 kts | 352° |
| 2026-05-07 17:08 | 55.99631 | 37.21602 | 5419 ft | 285 kts | 14° |
| 2026-05-07 17:08 | 56.01485 | 37.22976 | 5991 ft | 293 kts | 19° |
| 2026-05-07 17:08 | 56.03371 | 37.24472 | 6552 ft | 299 kts | 19° |
| 2026-05-07 17:09 | 56.05287 | 37.25961 | 6978 ft | 302 kts | 18° |
| 2026-05-07 17:09 | 56.07224 | 37.27422 | 6983 ft | 302 kts | 18° |
| 2026-05-07 17:09 | 56.09155 | 37.28847 | 6998 ft | 300 kts | 17° |
| 2026-05-07 17:09 | 56.11078 | 37.30235 | 7312 ft | 304 kts | 17° |
| 2026-05-07 17:10 | 56.13050 | 37.31651 | 7971 ft | 306 kts | 17° |
| 2026-05-07 17:10 | 56.15030 | 37.33075 | 8642 ft | 308 kts | 17° |
| 2026-05-07 17:10 | 56.17081 | 37.34113 | 9187 ft | 307 kts | 360° |
| 2026-05-07 17:10 | 56.19220 | 37.34362 | 9741 ft | 309 kts | 355° |
| 2026-05-07 17:11 | 56.21376 | 37.34503 | 10305 ft | 314 kts | 355° |
| 2026-05-07 17:11 | 56.23625 | 37.34642 | 10467 ft | 334 kts | 355° |
| 2026-05-07 17:11 | 56.26018 | 37.34811 | 10619 ft | 353 kts | 356° |
| 2026-05-07 17:11 | 56.28532 | 37.35016 | 10830 ft | 369 kts | 357° |
| 2026-05-07 17:12 | 56.31128 | 37.35255 | 11276 ft | 377 kts | 357° |
| 2026-05-07 17:12 | 56.33757 | 37.35515 | 11884 ft | 379 kts | 358° |
| 2026-05-07 17:12 | 56.36399 | 37.35784 | 12523 ft | 382 kts | 358° |
| 2026-05-07 17:12 | 56.39064 | 37.36055 | 13144 ft | 385 kts | 358° |
| 2026-05-07 17:13 | 56.41751 | 37.36327 | 13765 ft | 388 kts | 358° |
| 2026-05-07 17:13 | 56.44420 | 37.36597 | 14349 ft | 391 kts | 358° |
| 2026-05-07 17:13 | 56.47172 | 37.36874 | 14984 ft | 392 kts | 358° |
| 2026-05-07 17:13 | 56.49862 | 37.37146 | 15648 ft | 393 kts | 358° |
| 2026-05-07 17:14 | 56.52600 | 37.37421 | 16229 ft | 396 kts | 358° |
| 2026-05-07 17:14 | 56.55363 | 37.37700 | 16813 ft | 399 kts | 358° |
| 2026-05-07 17:14 | 56.58149 | 37.37980 | 17378 ft | 402 kts | 358° |
| 2026-05-07 17:14 | 56.60956 | 37.38262 | 17947 ft | 406 kts | 358° |
| 2026-05-07 17:15 | 56.63775 | 37.38953 | 18463 ft | 417 kts | 13° |
| 2026-05-07 17:15 | 56.66367 | 37.41416 | 19040 ft | 427 kts | 35° |
| 2026-05-07 17:15 | 56.68422 | 37.45355 | 19553 ft | 436 kts | 55° |
| 2026-05-07 17:15 | 56.69780 | 37.50313 | 20031 ft | 440 kts | 66° |
| 2026-05-07 17:16 | 56.70954 | 37.55466 | 20523 ft | 442 kts | 67° |
| 2026-05-07 17:16 | 56.72108 | 37.60671 | 20988 ft | 445 kts | 68° |
| 2026-05-07 17:16 | 56.73273 | 37.65914 | 21391 ft | 449 kts | 67° |
| 2026-05-07 17:16 | 56.74478 | 37.71262 | 21810 ft | 453 kts | 67° |
| 2026-05-07 17:17 | 56.75661 | 37.76451 | 22247 ft | 455 kts | 66° |
| 2026-05-07 17:17 | 56.76884 | 37.81782 | 22752 ft | 456 kts | 66° |
| 2026-05-07 17:17 | 56.78112 | 37.87128 | 23187 ft | 459 kts | 66° |
| 2026-05-07 17:17 | 56.79351 | 37.92526 | 23596 ft | 462 kts | 66° |
| 2026-05-07 17:18 | 56.80592 | 37.97946 | 23954 ft | 464 kts | 66° |
| 2026-05-07 17:18 | 56.81835 | 38.03397 | 24302 ft | 466 kts | 66° |
| 2026-05-07 17:18 | 56.83080 | 38.08867 | 24650 ft | 469 kts | 66° |
| 2026-05-07 17:18 | 56.84331 | 38.14379 | 25004 ft | 471 kts | 66° |
| 2026-05-07 17:19 | 56.85558 | 38.19938 | 25337 ft | 474 kts | 70° |
| 2026-05-07 17:19 | 56.86344 | 38.25815 | 25529 ft | 480 kts | 83° |
| 2026-05-07 17:19 | 56.86498 | 38.31900 | 25837 ft | 481 kts | 94° |
| 2026-05-07 17:19 | 56.86053 | 38.37937 | 26186 ft | 479 kts | 104° |
| 2026-05-07 17:20 | 56.85313 | 38.43889 | 26536 ft | 480 kts | 105° |
| 2026-05-07 17:20 | 56.84541 | 38.49834 | 26844 ft | 482 kts | 105° |
| 2026-05-07 17:20 | 56.83763 | 38.55800 | 27206 ft | 482 kts | 105° |
| 2026-05-07 17:20 | 56.82997 | 38.61758 | 27549 ft | 483 kts | 105° |
| 2026-05-07 17:21 | 56.82236 | 38.67757 | 27847 ft | 485 kts | 104° |
| 2026-05-07 17:21 | 56.81482 | 38.73773 | 28103 ft | 488 kts | 104° |
| 2026-05-07 17:21 | 56.80727 | 38.79826 | 28372 ft | 490 kts | 104° |
| 2026-05-07 17:21 | 56.79980 | 38.85819 | 28641 ft | 492 kts | 104° |
| 2026-05-07 17:22 | 56.79218 | 38.91913 | 28923 ft | 494 kts | 104° |
| 2026-05-07 17:22 | 56.78450 | 38.98028 | 29243 ft | 494 kts | 104° |
| 2026-05-07 17:22 | 56.77682 | 39.04117 | 29651 ft | 493 kts | 104° |
| 2026-05-07 17:22 | 56.76912 | 39.10191 | 30074 ft | 491 kts | 104° |
| 2026-05-07 17:23 | 56.76142 | 39.16238 | 30425 ft | 488 kts | 104° |
| 2026-05-07 17:23 | 56.75375 | 39.22227 | 30830 ft | 485 kts | 104° |
| 2026-05-07 17:23 | 56.74606 | 39.28210 | 31103 ft | 485 kts | 104° |
| 2026-05-07 17:23 | 56.73834 | 39.34190 | 31319 ft | 486 kts | 104° |
| 2026-05-07 17:24 | 56.73055 | 39.40189 | 31566 ft | 486 kts | 104° |
| 2026-05-07 17:24 | 56.72275 | 39.46183 | 31876 ft | 485 kts | 104° |
| 2026-05-07 17:24 | 56.71504 | 39.52079 | 32176 ft | 485 kts | 105° |
| 2026-05-07 17:24 | 56.70719 | 39.58062 | 32380 ft | 486 kts | 105° |
| 2026-05-07 17:25 | 56.69930 | 39.64046 | 32643 ft | 486 kts | 105° |
| 2026-05-07 17:25 | 56.69141 | 39.70014 | 32944 ft | 485 kts | 105° |
| 2026-05-07 17:25 | 56.68350 | 39.75968 | 33247 ft | 483 kts | 105° |
| 2026-05-07 17:25 | 56.67561 | 39.81886 | 33627 ft | 480 kts | 105° |
| 2026-05-07 17:26 | 56.66773 | 39.87776 | 33891 ft | 479 kts | 105° |
| 2026-05-07 17:26 | 56.65982 | 39.93655 | 34092 ft | 479 kts | 105° |
| 2026-05-07 17:26 | 56.65188 | 39.99536 | 34311 ft | 479 kts | 105° |
| 2026-05-07 17:26 | 56.64394 | 40.05402 | 34525 ft | 478 kts | 105° |
| 2026-05-07 17:27 | 56.63595 | 40.11275 | 34714 ft | 478 kts | 105° |
| 2026-05-07 17:27 | 56.62795 | 40.17132 | 34881 ft | 479 kts | 105° |
| 2026-05-07 17:27 | 56.61177 | 40.28914 | 34903 ft | 481 kts | 105° |
| 2026-05-07 17:28 | 56.59560 | 40.40602 | 34894 ft | 473 kts | 105° |
| 2026-05-07 17:28 | 56.57960 | 40.52084 | 34895 ft | 466 kts | 105° |
| 2026-05-07 17:29 | 56.56355 | 40.63502 | 34911 ft | 470 kts | 105° |
| 2026-05-07 17:29 | 56.54719 | 40.75055 | 34911 ft | 476 kts | 105° |
| 2026-05-07 17:30 | 56.53058 | 40.86715 | 34918 ft | 479 kts | 106° |
| 2026-05-07 17:30 | 56.51381 | 40.98397 | 34901 ft | 478 kts | 106° |
| 2026-05-07 17:31 | 56.49717 | 41.09922 | 34882 ft | 468 kts | 106° |
| 2026-05-07 17:31 | 56.47631 | 41.21017 | 34887 ft | 465 kts | 120° |
| 2026-05-07 17:32 | 56.44547 | 41.31289 | 34897 ft | 465 kts | 121° |
| 2026-05-07 17:32 | 56.41430 | 41.41465 | 34895 ft | 466 kts | 121° |
| 2026-05-07 17:33 | 56.38315 | 41.51748 | 34890 ft | 467 kts | 120° |
| 2026-05-07 17:33 | 56.35212 | 41.62056 | 34891 ft | 468 kts | 120° |
| 2026-05-07 17:34 | 56.32103 | 41.72363 | 34885 ft | 468 kts | 120° |
| 2026-05-07 17:34 | 56.28985 | 41.82657 | 34886 ft | 468 kts | 120° |
| 2026-05-07 17:35 | 56.25863 | 41.92911 | 34887 ft | 467 kts | 120° |
| 2026-05-07 17:35 | 56.22734 | 42.03143 | 34883 ft | 466 kts | 120° |
| 2026-05-07 17:36 | 56.19628 | 42.13255 | 34890 ft | 465 kts | 120° |
| 2026-05-07 17:36 | 56.16499 | 42.23399 | 34890 ft | 464 kts | 120° |
| 2026-05-07 17:37 | 56.13362 | 42.33525 | 34890 ft | 464 kts | 120° |
| 2026-05-07 17:37 | 56.10219 | 42.43627 | 34874 ft | 464 kts | 120° |
| 2026-05-07 17:38 | 56.07074 | 42.53692 | 34884 ft | 463 kts | 121° |
| 2026-05-07 17:38 | 56.03923 | 42.63737 | 34894 ft | 463 kts | 121° |
| 2026-05-07 17:39 | 56.00764 | 42.73763 | 34895 ft | 463 kts | 121° |
| 2026-05-07 17:39 | 55.97595 | 42.83778 | 34897 ft | 463 kts | 121° |
| 2026-05-07 17:40 | 55.94418 | 42.93776 | 34895 ft | 463 kts | 121° |
| 2026-05-07 17:40 | 55.91232 | 43.03762 | 34900 ft | 464 kts | 121° |
| 2026-05-07 17:41 | 55.88054 | 43.13681 | 34900 ft | 464 kts | 121° |
| 2026-05-07 17:41 | 55.84848 | 43.23644 | 34899 ft | 464 kts | 121° |
| 2026-05-07 17:42 | 55.81628 | 43.33610 | 34902 ft | 465 kts | 121° |
| 2026-05-07 17:42 | 55.78398 | 43.43567 | 34907 ft | 464 kts | 121° |
| 2026-05-07 17:43 | 55.75163 | 43.53498 | 34909 ft | 464 kts | 121° |
| 2026-05-07 17:43 | 55.71925 | 43.63398 | 34910 ft | 464 kts | 121° |
| 2026-05-07 17:44 | 55.68678 | 43.73284 | 34913 ft | 464 kts | 121° |
| 2026-05-07 17:44 | 55.65425 | 43.83145 | 34918 ft | 464 kts | 122° |
| 2026-05-07 17:45 | 55.62189 | 43.92918 | 34917 ft | 463 kts | 121° |
| 2026-05-07 17:45 | 55.58926 | 44.02733 | 34920 ft | 462 kts | 122° |
| 2026-05-07 17:46 | 55.55660 | 44.12515 | 34925 ft | 462 kts | 122° |
| 2026-05-07 17:46 | 55.52389 | 44.22274 | 34922 ft | 462 kts | 122° |
| 2026-05-07 17:47 | 55.49113 | 44.32009 | 34939 ft | 461 kts | 122° |
| 2026-05-07 17:47 | 55.45832 | 44.41719 | 34934 ft | 461 kts | 122° |
| 2026-05-07 17:48 | 55.42541 | 44.51423 | 34929 ft | 461 kts | 122° |
| 2026-05-07 17:48 | 55.39265 | 44.61043 | 34928 ft | 461 kts | 122° |
| 2026-05-07 17:49 | 55.35965 | 44.70701 | 34940 ft | 461 kts | 122° |
| 2026-05-07 17:49 | 55.32020 | 44.79419 | 34945 ft | 454 kts | 148° |
| 2026-05-07 17:50 | 55.29235 | 44.81938 | 34938 ft | 451 kts | 163° |
| 2026-05-07 17:50 | 55.26201 | 44.83174 | 34939 ft | 446 kts | 178° |
| 2026-05-07 17:50 | 55.20036 | 44.82814 | 34946 ft | 444 kts | 186° |
| 2026-05-07 17:51 | 55.13902 | 44.82080 | 34941 ft | 445 kts | 186° |
| 2026-05-07 17:51 | 55.07719 | 44.81392 | 34939 ft | 446 kts | 185° |
| 2026-05-07 17:52 | 55.01512 | 44.80766 | 34945 ft | 447 kts | 185° |
| 2026-05-07 17:52 | 54.95294 | 44.80168 | 34936 ft | 448 kts | 184° |
| 2026-05-07 17:53 | 54.89062 | 44.79574 | 34945 ft | 449 kts | 184° |
| 2026-05-07 17:53 | 54.82858 | 44.78984 | 34937 ft | 450 kts | 184° |
| 2026-05-07 17:54 | 54.76603 | 44.78390 | 34945 ft | 450 kts | 184° |
| 2026-05-07 17:54 | 54.70338 | 44.77796 | 35011 ft | 452 kts | 184° |
| 2026-05-07 17:55 | 54.67197 | 44.77499 | 35213 ft | 451 kts | 184° |
| 2026-05-07 17:55 | 54.64068 | 44.77203 | 35462 ft | 449 kts | 184° |
| 2026-05-07 17:55 | 54.60952 | 44.76910 | 35707 ft | 448 kts | 184° |
| 2026-05-07 17:55 | 54.57840 | 44.76617 | 35864 ft | 448 kts | 184° |
| 2026-05-07 17:56 | 54.51594 | 44.76029 | 35933 ft | 451 kts | 184° |
| 2026-05-07 17:56 | 54.45335 | 44.75443 | 35937 ft | 449 kts | 184° |
| 2026-05-07 17:57 | 54.40160 | 44.74960 | 35941 ft | 447 kts | 184° |
| 2026-05-07 17:57 | 54.32917 | 44.74286 | 35945 ft | 445 kts | 184° |
| 2026-05-07 17:58 | 54.26743 | 44.73713 | 35941 ft | 444 kts | 184° |
| 2026-05-07 17:58 | 54.20582 | 44.73142 | 35938 ft | 444 kts | 184° |
| 2026-05-07 17:59 | 54.14413 | 44.72573 | 35949 ft | 445 kts | 184° |
| 2026-05-07 17:59 | 54.08260 | 44.72006 | 35949 ft | 446 kts | 184° |
| 2026-05-07 18:00 | 54.02041 | 44.71436 | 35947 ft | 449 kts | 184° |
| 2026-05-07 18:00 | 53.95790 | 44.70864 | 35955 ft | 451 kts | 184° |
| 2026-05-07 18:01 | 53.89510 | 44.70292 | 35932 ft | 453 kts | 184° |
| 2026-05-07 18:01 | 53.83209 | 44.69719 | 35937 ft | 454 kts | 184° |
| 2026-05-07 18:02 | 53.73726 | 44.68861 | 35939 ft | 456 kts | 184° |
| 2026-05-07 18:03 | 53.67397 | 44.68290 | 35941 ft | 456 kts | 184° |
| 2026-05-07 18:03 | 53.61113 | 44.67725 | 35947 ft | 455 kts | 184° |
| 2026-05-07 18:04 | 53.54788 | 44.67157 | 35939 ft | 455 kts | 184° |
| 2026-05-07 18:04 | 53.48471 | 44.66593 | 35937 ft | 454 kts | 184° |
| 2026-05-07 18:05 | 53.42178 | 44.66032 | 35954 ft | 453 kts | 184° |
| 2026-05-07 18:05 | 53.35890 | 44.65473 | 35954 ft | 452 kts | 184° |
| 2026-05-07 18:06 | 53.29619 | 44.64917 | 35941 ft | 451 kts | 184° |
| 2026-05-07 18:06 | 53.23402 | 44.64368 | 35945 ft | 450 kts | 184° |
| 2026-05-07 18:07 | 53.17141 | 44.63816 | 35952 ft | 450 kts | 183° |
| 2026-05-07 18:07 | 53.10886 | 44.63267 | 35954 ft | 450 kts | 184° |
| 2026-05-07 18:08 | 53.05690 | 44.62812 | 35956 ft | 450 kts | 184° |
| 2026-05-07 18:08 | 52.99436 | 44.62265 | 35961 ft | 450 kts | 184° |
| 2026-05-07 18:09 | 52.93177 | 44.61720 | 35954 ft | 450 kts | 184° |
| 2026-05-07 18:09 | 52.86915 | 44.61176 | 35954 ft | 451 kts | 184° |
| 2026-05-07 18:10 | 52.80647 | 44.60633 | 35955 ft | 451 kts | 184° |
| 2026-05-07 18:10 | 52.74375 | 44.60091 | 35956 ft | 452 kts | 183° |
| 2026-05-07 18:11 | 52.68094 | 44.59550 | 35960 ft | 452 kts | 183° |
| 2026-05-07 18:11 | 52.61806 | 44.59010 | 35959 ft | 453 kts | 183° |
| 2026-05-07 18:12 | 52.55512 | 44.58471 | 35959 ft | 453 kts | 183° |
| 2026-05-07 18:12 | 52.49248 | 44.57937 | 35951 ft | 454 kts | 183° |
| 2026-05-07 18:13 | 52.42935 | 44.57399 | 35951 ft | 454 kts | 183° |
| 2026-05-07 18:13 | 52.36619 | 44.56863 | 35951 ft | 455 kts | 183° |
| 2026-05-07 18:14 | 52.30305 | 44.56329 | 35961 ft | 455 kts | 183° |
| 2026-05-07 18:14 | 52.23982 | 44.55795 | 35967 ft | 455 kts | 183° |
| 2026-05-07 18:15 | 52.17663 | 44.55263 | 35957 ft | 455 kts | 183° |
| 2026-05-07 18:15 | 52.11343 | 44.54733 | 35961 ft | 455 kts | 184° |
| 2026-05-07 18:16 | 52.05030 | 44.54204 | 35956 ft | 454 kts | 183° |
| 2026-05-07 18:16 | 51.98711 | 44.53677 | 35956 ft | 454 kts | 183° |
| 2026-05-07 18:17 | 51.92439 | 44.53155 | 35962 ft | 454 kts | 183° |
| 2026-05-07 18:17 | 51.86124 | 44.52631 | 35957 ft | 454 kts | 183° |
| 2026-05-07 18:18 | 51.79806 | 44.52108 | 35958 ft | 454 kts | 183° |
| 2026-05-07 18:18 | 51.73495 | 44.51587 | 35954 ft | 454 kts | 183° |
| 2026-05-07 18:19 | 51.67181 | 44.51068 | 35960 ft | 454 kts | 183° |
| 2026-05-07 18:19 | 51.60865 | 44.50550 | 35961 ft | 455 kts | 183° |
| 2026-05-07 18:20 | 51.54542 | 44.50032 | 35960 ft | 455 kts | 183° |
| 2026-05-07 18:20 | 51.48260 | 44.49519 | 35959 ft | 455 kts | 183° |
| 2026-05-07 18:21 | 51.41931 | 44.49004 | 35961 ft | 455 kts | 183° |
| 2026-05-07 18:21 | 51.35606 | 44.48491 | 35959 ft | 456 kts | 183° |
| 2026-05-07 18:22 | 51.29266 | 44.47978 | 35967 ft | 456 kts | 183° |
| 2026-05-07 18:22 | 51.22923 | 44.47465 | 35960 ft | 457 kts | 183° |
| 2026-05-07 18:23 | 51.16575 | 44.46960 | 35955 ft | 457 kts | 182° |
| 2026-05-07 18:23 | 51.10231 | 44.47451 | 35967 ft | 457 kts | 174° |
| 2026-05-07 18:24 | 51.03946 | 44.48463 | 35962 ft | 457 kts | 174° |
| 2026-05-07 18:24 | 50.97615 | 44.49462 | 35964 ft | 458 kts | 174° |
| 2026-05-07 18:25 | 50.91269 | 44.50392 | 35969 ft | 458 kts | 175° |
| 2026-05-07 18:25 | 50.84923 | 44.51288 | 35963 ft | 458 kts | 175° |
| 2026-05-07 18:26 | 50.78571 | 44.52175 | 35969 ft | 458 kts | 175° |
| 2026-05-07 18:26 | 50.72212 | 44.53063 | 35971 ft | 459 kts | 174° |
| 2026-05-07 18:27 | 50.65848 | 44.53951 | 35967 ft | 459 kts | 174° |
| 2026-05-07 18:27 | 50.59476 | 44.54838 | 35965 ft | 460 kts | 174° |
| 2026-05-07 18:28 | 50.53103 | 44.55723 | 35974 ft | 460 kts | 174° |
| 2026-05-07 18:28 | 50.46725 | 44.56606 | 35970 ft | 460 kts | 174° |
| 2026-05-07 18:29 | 50.40384 | 44.57481 | 35973 ft | 461 kts | 174° |
| 2026-05-07 18:29 | 50.33992 | 44.58361 | 35983 ft | 461 kts | 174° |
| 2026-05-07 18:30 | 50.27604 | 44.59239 | 35965 ft | 461 kts | 174° |
| 2026-05-07 18:30 | 50.21212 | 44.60114 | 35974 ft | 461 kts | 174° |
| 2026-05-07 18:31 | 50.14825 | 44.60987 | 35978 ft | 461 kts | 174° |
| 2026-05-07 18:31 | 50.08433 | 44.61857 | 35972 ft | 461 kts | 174° |
| 2026-05-07 18:32 | 50.02045 | 44.62725 | 35974 ft | 461 kts | 174° |
| 2026-05-07 18:32 | 49.95656 | 44.63591 | 35974 ft | 461 kts | 174° |
| 2026-05-07 18:33 | 49.89316 | 44.64448 | 35976 ft | 460 kts | 174° |
| 2026-05-07 18:33 | 49.82938 | 44.65308 | 35969 ft | 460 kts | 174° |
| 2026-05-07 18:34 | 49.76562 | 44.66165 | 35977 ft | 460 kts | 174° |
| 2026-05-07 18:34 | 49.70189 | 44.67019 | 35969 ft | 460 kts | 174° |
| 2026-05-07 18:35 | 49.63817 | 44.67872 | 35985 ft | 460 kts | 174° |
| 2026-05-07 18:35 | 49.57447 | 44.68721 | 35976 ft | 460 kts | 174° |
| 2026-05-07 18:36 | 49.51071 | 44.69570 | 36000 ft | 460 kts | 175° |
| 2026-05-07 18:36 | 49.44697 | 44.70415 | 35999 ft | 460 kts | 175° |
| 2026-05-07 18:37 | 49.38320 | 44.71259 | 35999 ft | 460 kts | 175° |
| 2026-05-07 18:37 | 49.31988 | 44.72095 | 36000 ft | 460 kts | 175° |
| 2026-05-07 18:38 | 49.25617 | 44.72934 | 35998 ft | 460 kts | 175° |
| 2026-05-07 18:38 | 49.19245 | 44.73770 | 36005 ft | 459 kts | 175° |
| 2026-05-07 18:39 | 49.12876 | 44.74605 | 35998 ft | 459 kts | 175° |
| 2026-05-07 18:39 | 49.06519 | 44.75435 | 36002 ft | 459 kts | 175° |
| 2026-05-07 18:40 | 49.00155 | 44.76265 | 36001 ft | 458 kts | 175° |
| 2026-05-07 18:40 | 48.93813 | 44.77090 | 36007 ft | 458 kts | 175° |
| 2026-05-07 18:41 | 48.87472 | 44.77970 | 35999 ft | 457 kts | 170° |
| 2026-05-07 18:41 | 48.84395 | 44.79160 | 36002 ft | 455 kts | 158° |
| 2026-05-07 18:41 | 48.81523 | 44.81139 | 36002 ft | 454 kts | 149° |
| 2026-05-07 18:42 | 48.76449 | 44.86786 | 36002 ft | 452 kts | 140° |
| 2026-05-07 18:42 | 48.71572 | 44.92710 | 36006 ft | 453 kts | 141° |
| 2026-05-07 18:43 | 48.66627 | 44.98622 | 35999 ft | 453 kts | 141° |
| 2026-05-07 18:43 | 48.61651 | 45.04493 | 35997 ft | 454 kts | 141° |
| 2026-05-07 18:44 | 48.56662 | 45.10352 | 35991 ft | 454 kts | 141° |
| 2026-05-07 18:44 | 48.51664 | 45.16210 | 35992 ft | 455 kts | 141° |
| 2026-05-07 18:45 | 48.46658 | 45.22066 | 35987 ft | 455 kts | 141° |
| 2026-05-07 18:45 | 48.41651 | 45.27907 | 35987 ft | 456 kts | 142° |
| 2026-05-07 18:46 | 48.36199 | 45.32757 | 35997 ft | 456 kts | 154° |
| 2026-05-07 18:46 | 48.30511 | 45.36836 | 35983 ft | 457 kts | 154° |
| 2026-05-07 18:47 | 48.24780 | 45.40953 | 35982 ft | 457 kts | 154° |
| 2026-05-07 18:47 | 48.19024 | 45.45138 | 35981 ft | 457 kts | 153° |
| 2026-05-07 18:48 | 48.13311 | 45.49309 | 35977 ft | 456 kts | 153° |
| 2026-05-07 18:48 | 48.07643 | 45.53442 | 35979 ft | 456 kts | 153° |
| 2026-05-07 18:49 | 48.01938 | 45.57589 | 35980 ft | 456 kts | 153° |
| 2026-05-07 18:49 | 47.96230 | 45.61726 | 35976 ft | 456 kts | 153° |
| 2026-05-07 18:50 | 47.90522 | 45.65853 | 35972 ft | 455 kts | 153° |
| 2026-05-07 18:50 | 47.84819 | 45.69967 | 35975 ft | 455 kts | 154° |
| 2026-05-07 18:51 | 47.79118 | 45.74069 | 35980 ft | 455 kts | 154° |
| 2026-05-07 18:51 | 47.73413 | 45.78163 | 35978 ft | 455 kts | 153° |
| 2026-05-07 18:52 | 47.67744 | 45.82222 | 35972 ft | 455 kts | 153° |
| 2026-05-07 18:52 | 47.62033 | 45.86302 | 35978 ft | 456 kts | 154° |
| 2026-05-07 18:53 | 47.56321 | 45.90372 | 35972 ft | 456 kts | 154° |
| 2026-05-07 18:53 | 47.50597 | 45.94441 | 35969 ft | 456 kts | 154° |
| 2026-05-07 18:54 | 47.44879 | 45.98497 | 35974 ft | 456 kts | 154° |
| 2026-05-07 18:54 | 47.39149 | 46.02551 | 35973 ft | 457 kts | 154° |
| 2026-05-07 18:55 | 47.33416 | 46.06601 | 35977 ft | 457 kts | 154° |
| 2026-05-07 18:55 | 47.27721 | 46.10619 | 35982 ft | 457 kts | 154° |
| 2026-05-07 18:56 | 47.21990 | 46.14654 | 35974 ft | 457 kts | 154° |
| 2026-05-07 18:56 | 47.16253 | 46.18684 | 35978 ft | 457 kts | 154° |
| 2026-05-07 18:57 | 47.10513 | 46.22706 | 35988 ft | 457 kts | 154° |
| 2026-05-07 18:57 | 47.05152 | 46.27600 | 35987 ft | 454 kts | 137° |
| 2026-05-07 18:58 | 47.01165 | 46.34714 | 35992 ft | 452 kts | 121° |
| 2026-05-07 18:58 | 46.97842 | 46.42535 | 35979 ft | 452 kts | 121° |
| 2026-05-07 18:59 | 46.94511 | 46.50346 | 35977 ft | 452 kts | 121° |
| 2026-05-07 18:59 | 46.91163 | 46.58061 | 35977 ft | 452 kts | 121° |
| 2026-05-07 19:00 | 46.87775 | 46.65807 | 35983 ft | 452 kts | 122° |
| 2026-05-07 19:00 | 46.84380 | 46.73538 | 35968 ft | 452 kts | 121° |
| 2026-05-07 19:01 | 46.80983 | 46.81253 | 35970 ft | 451 kts | 122° |
| 2026-05-07 19:01 | 46.77590 | 46.88944 | 35961 ft | 451 kts | 122° |
| 2026-05-07 19:02 | 46.74193 | 46.96621 | 35965 ft | 450 kts | 122° |
| 2026-05-07 19:02 | 46.70799 | 47.04274 | 35958 ft | 449 kts | 122° |
| 2026-05-07 19:03 | 46.67423 | 47.11917 | 35960 ft | 448 kts | 122° |
| 2026-05-07 19:03 | 46.64086 | 47.19587 | 35962 ft | 448 kts | 122° |
| 2026-05-07 19:04 | 46.60777 | 47.27184 | 35961 ft | 447 kts | 122° |
| 2026-05-07 19:04 | 46.57439 | 47.34810 | 35950 ft | 447 kts | 122° |
| 2026-05-07 19:05 | 46.54091 | 47.42428 | 35951 ft | 447 kts | 122° |
| 2026-05-07 19:05 | 46.50742 | 47.50029 | 35952 ft | 447 kts | 122° |
| 2026-05-07 19:06 | 46.47386 | 47.57627 | 35952 ft | 447 kts | 122° |
| 2026-05-07 19:06 | 46.42333 | 47.69027 | 35951 ft | 448 kts | 122° |
| 2026-05-07 19:07 | 46.38952 | 47.76629 | 35945 ft | 449 kts | 122° |
| 2026-05-07 19:07 | 46.35589 | 47.84173 | 35940 ft | 450 kts | 123° |
| 2026-05-07 19:08 | 46.32190 | 47.91779 | 35936 ft | 450 kts | 123° |
| 2026-05-07 19:08 | 46.28863 | 47.99468 | 35931 ft | 451 kts | 116° |
| 2026-05-07 19:09 | 46.26881 | 48.08046 | 35948 ft | 452 kts | 102° |
| 2026-05-07 19:09 | 46.25819 | 48.15440 | 35937 ft | 453 kts | 102° |
| 2026-05-07 19:10 | 46.24523 | 48.24355 | 35935 ft | 454 kts | 102° |
| 2026-05-07 19:10 | 46.23167 | 48.33267 | 35936 ft | 455 kts | 103° |
| 2026-05-07 19:11 | 46.21786 | 48.42198 | 35937 ft | 456 kts | 103° |
| 2026-05-07 19:11 | 46.20140 | 48.52571 | 35927 ft | 456 kts | 108° |
| 2026-05-07 19:12 | 46.19295 | 48.55408 | 35905 ft | 455 kts | 123° |
| 2026-05-07 19:12 | 46.17320 | 48.58921 | 35937 ft | 452 kts | 139° |
| 2026-05-07 19:12 | 46.14781 | 48.61563 | 35922 ft | 450 kts | 154° |
| 2026-05-07 19:12 | 46.11837 | 48.63024 | 35929 ft | 448 kts | 172° |
| 2026-05-07 19:13 | 46.08731 | 48.63284 | 35932 ft | 450 kts | 186° |
| 2026-05-07 19:13 | 46.05680 | 48.62320 | 35954 ft | 451 kts | 198° |
| 2026-05-07 19:13 | 45.99698 | 48.59417 | 35940 ft | 456 kts | 199° |
| 2026-05-07 19:14 | 45.93701 | 48.56416 | 35932 ft | 457 kts | 199° |
| 2026-05-07 19:14 | 45.87675 | 48.53474 | 35939 ft | 457 kts | 199° |
| 2026-05-07 19:15 | 45.81675 | 48.50600 | 35947 ft | 457 kts | 199° |
| 2026-05-07 19:15 | 45.75640 | 48.47731 | 35950 ft | 456 kts | 199° |
| 2026-05-07 19:16 | 45.69622 | 48.44877 | 35945 ft | 455 kts | 198° |
| 2026-05-07 19:16 | 45.63620 | 48.42036 | 35955 ft | 454 kts | 198° |
| 2026-05-07 19:17 | 45.57630 | 48.39205 | 35967 ft | 453 kts | 198° |
| 2026-05-07 19:17 | 45.51651 | 48.36386 | 35965 ft | 452 kts | 199° |
| 2026-05-07 19:18 | 45.45697 | 48.33585 | 35978 ft | 450 kts | 199° |
| 2026-05-07 19:18 | 45.39754 | 48.30794 | 35972 ft | 449 kts | 198° |
| 2026-05-07 19:19 | 45.33833 | 48.28022 | 35983 ft | 447 kts | 199° |
| 2026-05-07 19:19 | 45.27984 | 48.25289 | 35977 ft | 439 kts | 199° |
| 2026-05-07 19:20 | 45.22201 | 48.22590 | 35984 ft | 443 kts | 198° |
| 2026-05-07 19:20 | 45.16329 | 48.19858 | 35998 ft | 444 kts | 199° |
| 2026-05-07 19:21 | 45.10498 | 48.17150 | 36004 ft | 439 kts | 199° |
| 2026-05-07 19:21 | 45.04723 | 48.14475 | 35984 ft | 436 kts | 199° |
| 2026-05-07 19:22 | 44.98944 | 48.11803 | 35999 ft | 440 kts | 198° |
| 2026-05-07 19:22 | 44.93081 | 48.09098 | 36016 ft | 445 kts | 198° |
| 2026-05-07 19:23 | 44.87217 | 48.06398 | 36003 ft | 441 kts | 199° |
| 2026-05-07 19:23 | 44.81468 | 48.03757 | 36003 ft | 435 kts | 199° |
| 2026-05-07 19:24 | 44.75723 | 48.01123 | 36022 ft | 436 kts | 199° |
| 2026-05-07 19:24 | 44.69915 | 47.98466 | 36025 ft | 442 kts | 199° |
| 2026-05-07 19:25 | 44.64060 | 47.95794 | 36024 ft | 440 kts | 199° |
| 2026-05-07 19:25 | 44.58274 | 47.93159 | 36027 ft | 435 kts | 199° |
| 2026-05-07 19:26 | 44.52514 | 47.90541 | 36038 ft | 436 kts | 199° |
| 2026-05-07 19:26 | 44.46706 | 47.87905 | 36044 ft | 441 kts | 199° |
| 2026-05-07 19:27 | 44.40882 | 47.85268 | 36044 ft | 443 kts | 199° |
| 2026-05-07 19:27 | 44.35038 | 47.82628 | 36043 ft | 438 kts | 199° |
| 2026-05-07 19:28 | 44.29250 | 47.80020 | 36053 ft | 437 kts | 199° |
| 2026-05-07 19:28 | 44.23465 | 47.77417 | 36050 ft | 436 kts | 199° |
| 2026-05-07 19:29 | 44.17697 | 47.74827 | 36053 ft | 436 kts | 199° |
| 2026-05-07 19:29 | 44.11927 | 47.72241 | 36061 ft | 435 kts | 199° |
| 2026-05-07 19:30 | 44.06159 | 47.69662 | 36059 ft | 435 kts | 199° |
| 2026-05-07 19:30 | 44.00431 | 47.67107 | 36065 ft | 435 kts | 199° |
| 2026-05-07 19:31 | 43.94663 | 47.64538 | 36057 ft | 435 kts | 199° |
| 2026-05-07 19:31 | 43.88897 | 47.61976 | 36071 ft | 435 kts | 199° |
| 2026-05-07 19:32 | 43.83136 | 47.59420 | 36070 ft | 435 kts | 199° |
| 2026-05-07 19:32 | 43.77372 | 47.56869 | 36075 ft | 434 kts | 199° |
| 2026-05-07 19:33 | 43.71622 | 47.54327 | 36069 ft | 434 kts | 199° |
| 2026-05-07 19:33 | 43.66030 | 47.51442 | 36055 ft | 431 kts | 215° |
| 2026-05-07 19:34 | 43.63788 | 47.48750 | 36087 ft | 428 kts | 230° |
| 2026-05-07 19:34 | 43.62120 | 47.45354 | 36097 ft | 428 kts | 242° |
| 2026-05-07 19:34 | 43.61063 | 47.41523 | 36072 ft | 430 kts | 257° |
| 2026-05-07 19:34 | 43.60617 | 47.37440 | 36101 ft | 431 kts | 261° |
| 2026-05-07 19:35 | 43.59986 | 47.29200 | 36094 ft | 432 kts | 262° |
| 2026-05-07 19:35 | 43.59369 | 47.20932 | 36088 ft | 434 kts | 262° |
| 2026-05-07 19:36 | 43.58701 | 47.12656 | 36090 ft | 435 kts | 262° |
| 2026-05-07 19:36 | 43.58001 | 47.04362 | 36090 ft | 436 kts | 261° |
| 2026-05-07 19:37 | 43.57289 | 46.96055 | 36095 ft | 437 kts | 261° |
| 2026-05-07 19:37 | 43.56571 | 46.87742 | 36095 ft | 437 kts | 261° |
| 2026-05-07 19:38 | 43.55850 | 46.79472 | 36103 ft | 437 kts | 262° |
| 2026-05-07 19:38 | 43.55119 | 46.71145 | 36105 ft | 438 kts | 262° |
| 2026-05-07 19:39 | 43.54381 | 46.62809 | 36103 ft | 439 kts | 262° |
| 2026-05-07 19:39 | 43.53636 | 46.54456 | 36103 ft | 439 kts | 261° |
| 2026-05-07 19:40 | 43.52884 | 46.46106 | 36107 ft | 440 kts | 261° |
| 2026-05-07 19:40 | 43.52125 | 46.37737 | 36111 ft | 440 kts | 261° |
| 2026-05-07 19:41 | 43.51360 | 46.29379 | 36108 ft | 440 kts | 261° |
| 2026-05-07 19:41 | 43.50593 | 46.21068 | 36113 ft | 440 kts | 261° |
| 2026-05-07 19:42 | 43.49816 | 46.12703 | 36115 ft | 440 kts | 261° |
| 2026-05-07 19:42 | 43.49105 | 46.04329 | 36119 ft | 441 kts | 266° |
| 2026-05-07 19:43 | 43.49569 | 45.95887 | 36124 ft | 443 kts | 275° |
| 2026-05-07 19:43 | 43.50327 | 45.87456 | 36131 ft | 444 kts | 276° |
| 2026-05-07 19:44 | 43.51061 | 45.79005 | 36131 ft | 445 kts | 275° |
| 2026-05-07 19:44 | 43.51762 | 45.70523 | 36137 ft | 446 kts | 275° |
| 2026-05-07 19:45 | 43.52447 | 45.62025 | 36123 ft | 447 kts | 275° |
| 2026-05-07 19:45 | 43.53127 | 45.53503 | 36132 ft | 448 kts | 275° |
| 2026-05-07 19:46 | 43.53798 | 45.45022 | 36129 ft | 449 kts | 275° |
| 2026-05-07 19:46 | 43.54468 | 45.36464 | 36133 ft | 450 kts | 275° |
| 2026-05-07 19:47 | 43.55134 | 45.27880 | 36134 ft | 450 kts | 275° |
| 2026-05-07 19:47 | 43.55794 | 45.19291 | 36128 ft | 451 kts | 275° |
| 2026-05-07 19:48 | 43.56449 | 45.10688 | 36147 ft | 451 kts | 275° |
| 2026-05-07 19:48 | 43.57098 | 45.02076 | 36139 ft | 452 kts | 275° |
| 2026-05-07 19:49 | 43.57741 | 44.93453 | 36147 ft | 452 kts | 275° |
| 2026-05-07 19:49 | 43.58378 | 44.84818 | 36151 ft | 452 kts | 275° |
| 2026-05-07 19:50 | 43.59007 | 44.76197 | 36150 ft | 452 kts | 275° |
| 2026-05-07 19:50 | 43.59631 | 44.67557 | 36148 ft | 452 kts | 275° |
| 2026-05-07 19:51 | 43.60245 | 44.58970 | 36149 ft | 453 kts | 275° |
| 2026-05-07 19:51 | 43.60856 | 44.50330 | 36139 ft | 453 kts | 275° |
| 2026-05-07 19:52 | 43.61462 | 44.41674 | 36139 ft | 453 kts | 275° |
| 2026-05-07 19:52 | 43.62061 | 44.33009 | 36136 ft | 454 kts | 275° |
| 2026-05-07 19:53 | 43.62655 | 44.24323 | 36138 ft | 455 kts | 275° |
| 2026-05-07 19:53 | 43.63245 | 44.15626 | 36134 ft | 456 kts | 275° |
| 2026-05-07 19:54 | 43.63708 | 44.06886 | 36131 ft | 457 kts | 272° |
| 2026-05-07 19:54 | 43.63926 | 43.98102 | 36137 ft | 458 kts | 271° |
| 2026-05-07 19:55 | 43.64126 | 43.89307 | 36119 ft | 459 kts | 272° |
| 2026-05-07 19:55 | 43.64351 | 43.80502 | 36121 ft | 459 kts | 272° |
| 2026-05-07 19:56 | 43.64589 | 43.71681 | 36114 ft | 459 kts | 272° |
| 2026-05-07 19:56 | 43.64824 | 43.62878 | 36119 ft | 459 kts | 272° |
| 2026-05-07 19:57 | 43.65051 | 43.54066 | 36122 ft | 458 kts | 272° |
| 2026-05-07 19:57 | 43.65271 | 43.45276 | 36135 ft | 458 kts | 272° |
| 2026-05-07 19:58 | 43.65482 | 43.36543 | 36133 ft | 458 kts | 272° |
| 2026-05-07 19:58 | 43.65687 | 43.27764 | 36150 ft | 457 kts | 272° |
| 2026-05-07 19:59 | 43.65886 | 43.18989 | 36159 ft | 457 kts | 272° |
| 2026-05-07 19:59 | 43.66078 | 43.10210 | 36162 ft | 457 kts | 272° |
| 2026-05-07 20:00 | 43.66264 | 43.01436 | 36175 ft | 458 kts | 272° |
| 2026-05-07 20:00 | 43.66443 | 42.92647 | 36185 ft | 458 kts | 272° |
| 2026-05-07 20:01 | 43.66614 | 42.83853 | 36191 ft | 458 kts | 272° |
| 2026-05-07 20:01 | 43.66780 | 42.75043 | 36198 ft | 459 kts | 272° |
| 2026-05-07 20:02 | 43.66938 | 42.66285 | 36193 ft | 460 kts | 272° |
| 2026-05-07 20:02 | 43.67091 | 42.57453 | 36203 ft | 460 kts | 272° |
| 2026-05-07 20:03 | 43.67237 | 42.48616 | 36205 ft | 460 kts | 272° |
| 2026-05-07 20:03 | 43.67376 | 42.39778 | 36204 ft | 461 kts | 272° |
| 2026-05-07 20:04 | 43.67508 | 42.30928 | 36210 ft | 461 kts | 272° |
| 2026-05-07 20:04 | 43.67634 | 42.22079 | 36220 ft | 461 kts | 272° |
| 2026-05-07 20:05 | 43.67753 | 42.13228 | 36219 ft | 461 kts | 272° |
| 2026-05-07 20:05 | 43.67863 | 42.04450 | 36207 ft | 454 kts | 272° |
| 2026-05-07 20:06 | 43.67914 | 42.00169 | 36202 ft | 439 kts | 272° |
| 2026-05-07 20:06 | 43.67961 | 41.96019 | 36199 ft | 425 kts | 272° |
| 2026-05-07 20:06 | 43.68050 | 41.87987 | 36233 ft | 419 kts | 272° |
| 2026-05-07 20:07 | 43.68139 | 41.79841 | 36249 ft | 429 kts | 272° |
| 2026-05-07 20:07 | 43.68221 | 41.71522 | 36245 ft | 436 kts | 272° |
| 2026-05-07 20:08 | 43.68297 | 41.63117 | 36244 ft | 439 kts | 272° |
| 2026-05-07 20:08 | 43.68365 | 41.54735 | 36216 ft | 431 kts | 272° |
| 2026-05-07 20:09 | 43.68427 | 41.46504 | 36206 ft | 427 kts | 272° |
| 2026-05-07 20:09 | 43.68455 | 41.42471 | 35945 ft | 423 kts | 272° |
| 2026-05-07 20:10 | 43.68510 | 41.34258 | 33968 ft | 439 kts | 273° |
| 2026-05-07 20:10 | 43.68538 | 41.29992 | 32911 ft | 446 kts | 273° |
| 2026-05-07 20:10 | 43.68561 | 41.25722 | 32270 ft | 442 kts | 272° |
| 2026-05-07 20:10 | 43.68581 | 41.21517 | 31737 ft | 435 kts | 272° |
| 2026-05-07 20:11 | 43.68600 | 41.17359 | 31152 ft | 431 kts | 272° |
| 2026-05-07 20:11 | 43.68618 | 41.13242 | 30544 ft | 428 kts | 272° |
| 2026-05-07 20:11 | 43.68635 | 41.09146 | 29876 ft | 425 kts | 272° |
| 2026-05-07 20:11 | 43.68651 | 41.05091 | 29262 ft | 419 kts | 272° |
| 2026-05-07 20:12 | 43.68665 | 41.01086 | 28655 ft | 414 kts | 272° |
| 2026-05-07 20:12 | 43.68678 | 40.97133 | 28055 ft | 409 kts | 272° |
| 2026-05-07 20:12 | 43.68686 | 40.94545 | 27663 ft | 406 kts | 272° |
| 2026-05-07 20:12 | 43.68695 | 40.90672 | 27085 ft | 401 kts | 272° |
| 2026-05-07 20:13 | 43.68705 | 40.86837 | 26469 ft | 397 kts | 272° |
| 2026-05-07 20:13 | 43.68720 | 40.83049 | 25872 ft | 393 kts | 272° |
| 2026-05-07 20:13 | 43.68735 | 40.79300 | 25371 ft | 388 kts | 272° |
| 2026-05-07 20:13 | 43.68749 | 40.75597 | 24866 ft | 383 kts | 272° |
| 2026-05-07 20:14 | 43.68762 | 40.71934 | 24353 ft | 379 kts | 272° |
| 2026-05-07 20:14 | 43.68761 | 40.68312 | 23857 ft | 374 kts | 272° |
| 2026-05-07 20:14 | 43.68769 | 40.64738 | 23287 ft | 370 kts | 272° |
| 2026-05-07 20:14 | 43.68782 | 40.61195 | 22688 ft | 367 kts | 272° |
| 2026-05-07 20:15 | 43.68795 | 40.57686 | 22082 ft | 364 kts | 272° |
| 2026-05-07 20:15 | 43.68804 | 40.54211 | 21524 ft | 360 kts | 272° |
| 2026-05-07 20:15 | 43.68812 | 40.50765 | 20990 ft | 357 kts | 272° |
| 2026-05-07 20:15 | 43.68817 | 40.47347 | 20430 ft | 354 kts | 272° |
| 2026-05-07 20:16 | 43.68820 | 40.43961 | 19876 ft | 352 kts | 272° |
| 2026-05-07 20:16 | 43.68822 | 40.40634 | 19372 ft | 351 kts | 272° |
| 2026-05-07 20:16 | 43.68824 | 40.37264 | 18990 ft | 350 kts | 271° |
| 2026-05-07 20:16 | 43.68824 | 40.33917 | 18734 ft | 346 kts | 272° |
| 2026-05-07 20:17 | 43.68823 | 40.30606 | 18409 ft | 344 kts | 271° |
| 2026-05-07 20:17 | 43.68822 | 40.27310 | 18022 ft | 342 kts | 271° |
| 2026-05-07 20:17 | 43.68820 | 40.24028 | 17655 ft | 341 kts | 271° |
| 2026-05-07 20:17 | 43.68817 | 40.20765 | 17293 ft | 339 kts | 271° |
| 2026-05-07 20:18 | 43.68812 | 40.17520 | 16971 ft | 337 kts | 271° |
| 2026-05-07 20:18 | 43.68613 | 40.14311 | 16600 ft | 337 kts | 254° |
| 2026-05-07 20:18 | 43.67544 | 40.11460 | 16293 ft | 336 kts | 230° |
| 2026-05-07 20:18 | 43.65795 | 40.09373 | 15961 ft | 333 kts | 208° |
| 2026-05-07 20:19 | 43.63682 | 40.08087 | 15628 ft | 331 kts | 200° |
| 2026-05-07 20:19 | 43.61532 | 40.06970 | 15280 ft | 330 kts | 199° |
| 2026-05-07 20:19 | 43.59384 | 40.05887 | 14980 ft | 328 kts | 199° |
| 2026-05-07 20:19 | 43.57245 | 40.04810 | 14667 ft | 326 kts | 199° |
| 2026-05-07 20:20 | 43.55119 | 40.03731 | 14376 ft | 325 kts | 199° |
| 2026-05-07 20:20 | 43.53004 | 40.02650 | 14063 ft | 323 kts | 200° |
| 2026-05-07 20:20 | 43.50932 | 40.01585 | 13726 ft | 321 kts | 200° |
| 2026-05-07 20:20 | 43.48846 | 40.00509 | 13405 ft | 319 kts | 200° |
| 2026-05-07 20:21 | 43.46774 | 39.99438 | 13075 ft | 317 kts | 200° |
| 2026-05-07 20:21 | 43.44716 | 39.98373 | 12750 ft | 315 kts | 200° |
| 2026-05-07 20:21 | 43.42671 | 39.97315 | 12430 ft | 313 kts | 200° |
| 2026-05-07 20:21 | 43.40635 | 39.96261 | 12121 ft | 312 kts | 200° |
| 2026-05-07 20:22 | 43.38613 | 39.95216 | 11813 ft | 309 kts | 200° |
| 2026-05-07 20:22 | 43.36609 | 39.94179 | 11563 ft | 306 kts | 200° |
| 2026-05-07 20:22 | 43.34619 | 39.93152 | 11313 ft | 305 kts | 200° |
| 2026-05-07 20:22 | 43.32637 | 39.92128 | 11072 ft | 303 kts | 200° |
| 2026-05-07 20:23 | 43.30665 | 39.91111 | 10828 ft | 302 kts | 200° |
| 2026-05-07 20:23 | 43.28701 | 39.90098 | 10584 ft | 301 kts | 200° |
| 2026-05-07 20:23 | 43.26772 | 39.89104 | 10342 ft | 299 kts | 200° |
| 2026-05-07 20:23 | 43.24830 | 39.88104 | 10105 ft | 298 kts | 200° |
| 2026-05-07 20:24 | 43.22891 | 39.87107 | 9843 ft | 297 kts | 200° |
| 2026-05-07 20:24 | 43.20973 | 39.86120 | 9576 ft | 293 kts | 200° |
| 2026-05-07 20:24 | 43.19078 | 39.85146 | 9298 ft | 286 kts | 200° |
| 2026-05-07 20:24 | 43.17244 | 39.84204 | 9023 ft | 277 kts | 200° |
| 2026-05-07 20:25 | 43.15466 | 39.83291 | 8754 ft | 270 kts | 200° |
| 2026-05-07 20:25 | 43.13718 | 39.82395 | 8498 ft | 267 kts | 200° |
| 2026-05-07 20:25 | 43.11980 | 39.81504 | 8246 ft | 267 kts | 200° |
| 2026-05-07 20:25 | 43.10248 | 39.80615 | 8048 ft | 265 kts | 200° |
| 2026-05-07 20:26 | 43.08515 | 39.79725 | 8009 ft | 267 kts | 200° |
| 2026-05-07 20:26 | 43.06768 | 39.78833 | 8007 ft | 269 kts | 200° |
| 2026-05-07 20:26 | 43.05032 | 39.77946 | 7991 ft | 263 kts | 200° |
| 2026-05-07 20:26 | 43.03323 | 39.77137 | 7977 ft | 258 kts | 190° |
| 2026-05-07 20:27 | 43.01568 | 39.77322 | 8010 ft | 257 kts | 156° |
| 2026-05-07 20:27 | 43.00117 | 39.78713 | 8006 ft | 258 kts | 128° |
| 2026-05-07 20:27 | 42.99307 | 39.80877 | 8007 ft | 259 kts | 101° |
| 2026-05-07 20:27 | 42.99324 | 39.83279 | 8000 ft | 259 kts | 73° |
| 2026-05-07 20:28 | 43.00194 | 39.85408 | 7997 ft | 260 kts | 45° |
| 2026-05-07 20:28 | 43.01693 | 39.86760 | 8007 ft | 260 kts | 22° |
| 2026-05-07 20:28 | 43.03403 | 39.87580 | 8007 ft | 261 kts | 18° |
| 2026-05-07 20:28 | 43.05136 | 39.88320 | 7993 ft | 261 kts | 18° |
| 2026-05-07 20:29 | 43.06862 | 39.89067 | 7986 ft | 260 kts | 18° |
| 2026-05-07 20:29 | 43.08577 | 39.89819 | 7995 ft | 258 kts | 16° |
| 2026-05-07 20:29 | 43.10341 | 39.89970 | 7990 ft | 256 kts | 346° |
| 2026-05-07 20:29 | 43.11917 | 39.88884 | 7997 ft | 256 kts | 317° |
| 2026-05-07 20:30 | 43.12930 | 39.86917 | 8001 ft | 256 kts | 290° |
| 2026-05-07 20:30 | 43.13156 | 39.84519 | 8000 ft | 256 kts | 261° |
| 2026-05-07 20:30 | 43.12522 | 39.82262 | 8006 ft | 257 kts | 232° |
| 2026-05-07 20:30 | 43.11177 | 39.80678 | 8011 ft | 258 kts | 206° |
| 2026-05-07 20:31 | 43.09505 | 39.79775 | 8009 ft | 260 kts | 197° |
| 2026-05-07 20:31 | 43.07772 | 39.79029 | 8003 ft | 262 kts | 197° |
| 2026-05-07 20:31 | 43.06026 | 39.78280 | 8004 ft | 264 kts | 197° |
| 2026-05-07 20:31 | 43.04270 | 39.77510 | 7995 ft | 265 kts | 197° |
| 2026-05-07 20:32 | 43.02475 | 39.77077 | 7981 ft | 262 kts | 173° |
| 2026-05-07 20:32 | 43.00789 | 39.77891 | 7997 ft | 258 kts | 143° |
| 2026-05-07 20:32 | 42.99622 | 39.79702 | 7998 ft | 255 kts | 115° |
| 2026-05-07 20:32 | 42.99221 | 39.81999 | 8004 ft | 253 kts | 88° |
| 2026-05-07 20:33 | 42.99652 | 39.84306 | 8006 ft | 253 kts | 60° |
| 2026-05-07 20:33 | 43.00820 | 39.86076 | 8006 ft | 253 kts | 34° |
| 2026-05-07 20:33 | 43.02409 | 39.87102 | 8011 ft | 254 kts | 20° |
| 2026-05-07 20:33 | 43.04098 | 39.87853 | 8005 ft | 256 kts | 18° |
| 2026-05-07 20:34 | 43.05802 | 39.88586 | 8000 ft | 257 kts | 18° |
| 2026-05-07 20:34 | 43.07510 | 39.89334 | 7995 ft | 258 kts | 18° |
| 2026-05-07 20:34 | 43.09235 | 39.90010 | 7984 ft | 259 kts | 7° |
| 2026-05-07 20:34 | 43.10994 | 39.89671 | 8007 ft | 258 kts | 335° |
| 2026-05-07 20:35 | 43.12403 | 39.88182 | 7997 ft | 259 kts | 307° |
| 2026-05-07 20:35 | 43.13131 | 39.85953 | 7997 ft | 259 kts | 278° |
| 2026-05-07 20:35 | 43.12998 | 39.83519 | 8001 ft | 259 kts | 249° |
| 2026-05-07 20:35 | 43.12023 | 39.81484 | 7992 ft | 259 kts | 220° |
| 2026-05-07 20:36 | 43.10485 | 39.80244 | 8007 ft | 258 kts | 200° |
| 2026-05-07 20:36 | 43.08778 | 39.79454 | 8005 ft | 260 kts | 197° |
| 2026-05-07 20:36 | 43.07047 | 39.78718 | 7998 ft | 261 kts | 197° |
| 2026-05-07 20:36 | 43.05307 | 39.77966 | 8002 ft | 263 kts | 197° |
| 2026-05-07 20:37 | 43.03564 | 39.77223 | 7987 ft | 263 kts | 192° |
| 2026-05-07 20:37 | 43.01790 | 39.77255 | 7996 ft | 259 kts | 161° |
| 2026-05-07 20:37 | 43.00268 | 39.78498 | 7995 ft | 257 kts | 132° |
| 2026-05-07 20:37 | 42.99374 | 39.80572 | 7997 ft | 255 kts | 104° |
| 2026-05-07 20:38 | 42.99299 | 39.82960 | 8004 ft | 254 kts | 77° |
| 2026-05-07 20:38 | 43.00057 | 39.85112 | 7999 ft | 254 kts | 49° |
| 2026-05-07 20:38 | 43.01453 | 39.86568 | 8004 ft | 255 kts | 25° |
| 2026-05-07 20:38 | 43.03118 | 39.87416 | 8005 ft | 256 kts | 18° |
| 2026-05-07 20:39 | 43.04850 | 39.87992 | 7982 ft | 258 kts | 2° |
| 2026-05-07 20:39 | 43.06589 | 39.87506 | 8002 ft | 258 kts | 333° |
| 2026-05-07 20:39 | 43.07938 | 39.85920 | 7999 ft | 259 kts | 303° |
| 2026-05-07 20:39 | 43.08584 | 39.83635 | 8013 ft | 260 kts | 281° |
| 2026-05-07 20:40 | 43.08860 | 39.81186 | 8002 ft | 261 kts | 278° |
| 2026-05-07 20:40 | 43.09095 | 39.78710 | 7996 ft | 262 kts | 277° |
| 2026-05-07 20:40 | 43.09323 | 39.76234 | 7993 ft | 263 kts | 277° |
| 2026-05-07 20:40 | 43.09548 | 39.73751 | 7997 ft | 262 kts | 277° |
| 2026-05-07 20:41 | 43.09772 | 39.71265 | 7747 ft | 265 kts | 277° |
| 2026-05-07 20:41 | 43.09997 | 39.68764 | 7497 ft | 264 kts | 277° |
| 2026-05-07 20:41 | 43.10220 | 39.66284 | 7249 ft | 261 kts | 277° |
| 2026-05-07 20:41 | 43.10440 | 39.63840 | 6999 ft | 257 kts | 278° |
| 2026-05-07 20:42 | 43.10979 | 39.61586 | 6732 ft | 253 kts | 304° |
| 2026-05-07 20:42 | 43.12256 | 39.59979 | 6491 ft | 251 kts | 335° |
| 2026-05-07 20:42 | 43.13934 | 39.59473 | 6241 ft | 250 kts | 5° |
| 2026-05-07 20:42 | 43.15581 | 39.60194 | 6002 ft | 252 kts | 35° |
| 2026-05-07 20:43 | 43.16757 | 39.61948 | 5750 ft | 251 kts | 62° |
| 2026-05-07 20:43 | 43.17507 | 39.64097 | 5509 ft | 249 kts | 66° |
| 2026-05-07 20:43 | 43.18193 | 39.66270 | 5267 ft | 248 kts | 67° |
| 2026-05-07 20:43 | 43.18870 | 39.68439 | 5013 ft | 247 kts | 67° |
| 2026-05-07 20:44 | 43.19543 | 39.70600 | 4749 ft | 246 kts | 67° |
| 2026-05-07 20:44 | 43.20214 | 39.72753 | 4493 ft | 245 kts | 67° |
| 2026-05-07 20:44 | 43.20885 | 39.74899 | 4238 ft | 244 kts | 67° |
| 2026-05-07 20:44 | 43.21557 | 39.77035 | 3985 ft | 243 kts | 65° |
| 2026-05-07 20:45 | 43.22584 | 39.78838 | 3705 ft | 244 kts | 33° |
| 2026-05-07 20:45 | 43.24087 | 39.79894 | 3486 ft | 242 kts | 27° |
| 2026-05-07 20:45 | 43.25567 | 39.80986 | 3227 ft | 241 kts | 30° |
| 2026-05-07 20:45 | 43.27032 | 39.82104 | 2968 ft | 241 kts | 30° |
| 2026-05-07 20:46 | 43.28495 | 39.83215 | 2720 ft | 240 kts | 30° |
| 2026-05-07 20:46 | 43.29955 | 39.84317 | 2464 ft | 239 kts | 30° |
| 2026-05-07 20:46 | 43.31409 | 39.85412 | 2251 ft | 237 kts | 30° |
| 2026-05-07 20:46 | 43.32840 | 39.86488 | 2125 ft | 230 kts | 30° |
| 2026-05-07 20:47 | 43.34244 | 39.87546 | 2008 ft | 233 kts | 29° |
| 2026-05-07 20:47 | 43.35687 | 39.88633 | 1722 ft | 239 kts | 29° |
| 2026-05-07 20:47 | 43.37144 | 39.89729 | 1406 ft | 237 kts | 29° |
| 2026-05-07 20:47 | 43.38516 | 39.90761 | 1126 ft | 218 kts | 29° |
| 2026-05-07 20:48 | 43.39820 | 39.91743 | 859 ft | 210 kts | 28° |
| 2026-05-07 20:48 | 43.41154 | 39.92747 | 728 ft | 239 kts | 29° |
| 2026-05-07 20:48 | 43.42629 | 39.93852 | 1728 ft | 236 kts | 37° |
| 2026-05-07 20:48 | 43.43450 | 39.95652 | 2876 ft | 227 kts | 84° |
| 2026-05-07 20:49 | 43.43133 | 39.97838 | 3229 ft | 258 kts | 121° |
| 2026-05-07 20:49 | 43.41777 | 39.99514 | 3671 ft | 266 kts | 156° |
| 2026-05-07 20:49 | 43.40022 | 39.99941 | 3533 ft | 255 kts | 186° |
| 2026-05-07 20:49 | 43.38336 | 39.99380 | 3141 ft | 245 kts | 197° |
| 2026-05-07 20:50 | 43.36737 | 39.98646 | 2732 ft | 240 kts | 201° |
| 2026-05-07 20:50 | 43.35245 | 39.97670 | 2324 ft | 236 kts | 207° |
| 2026-05-07 20:50 | 43.33799 | 39.96636 | 1940 ft | 231 kts | 207° |
| 2026-05-07 20:50 | 43.32408 | 39.95628 | 2518 ft | 225 kts | 207° |
| 2026-05-07 20:51 | 43.30998 | 39.94660 | 3392 ft | 229 kts | 205° |
| 2026-05-07 20:51 | 43.29551 | 39.93709 | 4159 ft | 233 kts | 204° |
| 2026-05-07 20:51 | 43.28076 | 39.92756 | 4926 ft | 235 kts | 204° |
| 2026-05-07 20:51 | 43.26588 | 39.91801 | 5634 ft | 238 kts | 204° |
| 2026-05-07 20:52 | 43.25094 | 39.90846 | 5940 ft | 231 kts | 204° |
| 2026-05-07 20:52 | 43.23672 | 39.89938 | 5990 ft | 222 kts | 204° |
| 2026-05-07 20:52 | 43.22294 | 39.89059 | 5982 ft | 215 kts | 204° |
| 2026-05-07 20:52 | 43.20944 | 39.88199 | 5991 ft | 215 kts | 204° |
| 2026-05-07 20:53 | 43.19598 | 39.87340 | 6009 ft | 218 kts | 205° |
| 2026-05-07 20:53 | 43.18392 | 39.86079 | 6004 ft | 220 kts | 227° |
| 2026-05-07 20:53 | 43.17194 | 39.84805 | 5986 ft | 219 kts | 202° |
| 2026-05-07 20:53 | 43.15790 | 39.84031 | 6000 ft | 218 kts | 202° |
| 2026-05-07 20:54 | 43.14387 | 39.83229 | 6002 ft | 218 kts | 202° |
| 2026-05-07 20:54 | 43.13012 | 39.82436 | 5981 ft | 210 kts | 202° |
| 2026-05-07 20:54 | 43.11700 | 39.81676 | 5977 ft | 199 kts | 202° |
| 2026-05-07 20:54 | 43.10464 | 39.80959 | 5983 ft | 189 kts | 202° |
| 2026-05-07 20:55 | 43.09264 | 39.80262 | 5988 ft | 185 kts | 202° |
| 2026-05-07 20:55 | 43.08105 | 39.79590 | 5981 ft | 178 kts | 202° |
| 2026-05-07 20:55 | 43.06975 | 39.78934 | 6010 ft | 176 kts | 202° |
| 2026-05-07 20:55 | 43.05843 | 39.78277 | 6010 ft | 178 kts | 202° |
| 2026-05-07 20:56 | 43.04699 | 39.77614 | 6009 ft | 179 kts | 202° |
| 2026-05-07 20:56 | 43.03553 | 39.76950 | 6007 ft | 180 kts | 202° |
| 2026-05-07 20:56 | 43.02402 | 39.76284 | 6003 ft | 180 kts | 202° |
| 2026-05-07 20:56 | 43.01313 | 39.75487 | 5872 ft | 186 kts | 224° |
| 2026-05-07 20:57 | 43.00881 | 39.73885 | 5657 ft | 180 kts | 278° |
| 2026-05-07 20:57 | 43.01489 | 39.72501 | 5457 ft | 170 kts | 328° |
| 2026-05-07 20:57 | 43.02555 | 39.71802 | 5370 ft | 172 kts | 348° |
| 2026-05-07 20:57 | 43.03710 | 39.71917 | 5259 ft | 163 kts | 16° |
| 2026-05-07 20:58 | 43.04772 | 39.72359 | 5138 ft | 156 kts | 19° |
| 2026-05-07 20:58 | 43.05785 | 39.72808 | 5084 ft | 152 kts | 19° |
| 2026-05-07 20:58 | 43.06788 | 39.73254 | 4945 ft | 150 kts | 19° |
| 2026-05-07 20:58 | 43.07778 | 39.73693 | 4829 ft | 150 kts | 19° |
| 2026-05-07 20:59 | 43.08434 | 39.73984 | 4760 ft | 150 kts | 19° |
| 2026-05-07 20:59 | 43.11642 | 39.75400 | 4411 ft | 151 kts | 19° |
| 2026-05-07 21:00 | 43.12642 | 39.75841 | 4312 ft | 151 kts | 19° |
| 2026-05-07 21:00 | 43.13640 | 39.76280 | 4208 ft | 151 kts | 19° |
| 2026-05-07 21:00 | 43.14636 | 39.76718 | 4103 ft | 150 kts | 19° |
| 2026-05-07 21:00 | 43.15632 | 39.77156 | 3995 ft | 151 kts | 19° |
| 2026-05-07 21:01 | 43.16631 | 39.77596 | 3895 ft | 151 kts | 19° |
| 2026-05-07 21:01 | 43.17628 | 39.78034 | 3795 ft | 151 kts | 19° |
| 2026-05-07 21:01 | 43.18630 | 39.78475 | 3686 ft | 151 kts | 19° |
| 2026-05-07 21:01 | 43.19617 | 39.78908 | 3583 ft | 151 kts | 19° |
| 2026-05-07 21:02 | 43.20618 | 39.79348 | 3477 ft | 151 kts | 19° |
| 2026-05-07 21:02 | 43.21618 | 39.79788 | 3367 ft | 151 kts | 19° |
| 2026-05-07 21:02 | 43.22617 | 39.80227 | 3260 ft | 151 kts | 19° |
| 2026-05-07 21:02 | 43.23613 | 39.80666 | 3154 ft | 150 kts | 19° |
| 2026-05-07 21:03 | 43.24602 | 39.81101 | 3044 ft | 149 kts | 19° |
| 2026-05-07 21:03 | 43.25587 | 39.81534 | 2943 ft | 149 kts | 19° |
| 2026-05-07 21:03 | 43.26566 | 39.81989 | 2844 ft | 149 kts | 22° |
| 2026-05-07 21:03 | 43.27519 | 39.82539 | 2738 ft | 148 kts | 27° |
| 2026-05-07 21:04 | 43.28435 | 39.83183 | 2627 ft | 147 kts | 30° |
| 2026-05-07 21:04 | 43.29335 | 39.83852 | 2535 ft | 147 kts | 30° |
| 2026-05-07 21:04 | 43.30229 | 39.84524 | 2433 ft | 147 kts | 30° |
| 2026-05-07 21:04 | 43.31123 | 39.85197 | 2330 ft | 146 kts | 30° |
| 2026-05-07 21:05 | 43.32013 | 39.85867 | 2228 ft | 146 kts | 30° |
| 2026-05-07 21:05 | 43.32903 | 39.86537 | 2117 ft | 146 kts | 30° |
| 2026-05-07 21:05 | 43.33794 | 39.87208 | 2037 ft | 148 kts | 30° |
| 2026-05-07 21:05 | 43.34700 | 39.87889 | 1923 ft | 149 kts | 30° |
| 2026-05-07 21:06 | 43.35592 | 39.88561 | 1738 ft | 147 kts | 30° |
| 2026-05-07 21:06 | 43.36475 | 39.89225 | 1552 ft | 143 kts | 30° |
| 2026-05-07 21:06 | 43.37339 | 39.89876 | 1383 ft | 141 kts | 29° |
| 2026-05-07 21:06 | 43.38197 | 39.90521 | 1208 ft | 139 kts | 29° |
| 2026-05-07 21:07 | 43.39050 | 39.91166 | 1022 ft | 140 kts | 29° |
| 2026-05-07 21:07 | 43.39888 | 39.91800 | 851 ft | 137 kts | 28° |
| 2026-05-07 21:07 | 43.40713 | 39.92418 | 689 ft | 134 kts | 28° |
| 2026-05-07 21:07 | 43.41536 | 39.93030 | 517 ft | 135 kts | 29° |
| 2026-05-07 21:08 | 43.42353 | 39.93647 | 358 ft | 133 kts | 28° |
| 2026-05-07 21:08 | 43.43168 | 39.94263 | 188 ft | 134 kts | 29° |
| 2026-05-07 21:08 | 43.43970 | 39.94867 | 85 ft | 124 kts | 28° |
| 2026-05-07 21:08 | 43.44637 | 39.95366 | 84 ft | 89 kts | 28° |
| 2026-05-07 21:09 | 43.45047 | 39.95675 | 89 ft | 45 kts | 28° |
| 2026-05-07 21:09 | 43.45229 | 39.95808 | 91 ft | 15 kts | 28° |
| 2026-05-07 21:09 | 43.45302 | 39.95863 | 93 ft | 7 kts | 29° |
| 2026-05-07 21:09 | 43.45345 | 39.95892 | 94 ft | 7 kts | 22° |
| 2026-05-07 21:10 | 43.45376 | 39.95909 | 94 ft | 4 kts | 34° |
| 2026-05-07 21:10 | 43.45386 | 39.95945 | 95 ft | 4 kts | 90° |
| 2026-05-07 21:10 | 43.45378 | 39.95983 | 95 ft | 4 kts | 113° |
| 2026-05-07 21:10 | 43.45356 | 39.96017 | 94 ft | 6 kts | 144° |
| 2026-05-07 21:11 | 43.45314 | 39.96015 | 92 ft | 5 kts | 208° |
| 2026-05-07 21:11 | 43.45297 | 39.96002 | 92 ft | 1 kts | 210° |
| 2026-05-07 21:11 | 43.45275 | 39.95983 | 91 ft | 2 kts | 221° |
| 2026-05-07 21:12 | 43.45268 | 39.95964 | 91 ft | 3 kts | 257° |
| 2026-05-07 21:12 | 43.45276 | 39.95917 | 94 ft | 8 kts | 300° |
| 2026-05-07 21:12 | 43.45301 | 39.95835 | 93 ft | 10 kts | 273° |
| 2026-05-07 21:12 | 43.45273 | 39.95749 | 91 ft | 11 kts | 238° |
| 2026-05-07 21:13 | 43.45234 | 39.95657 | 90 ft | 11 kts | 239° |
| 2026-05-07 21:13 | 43.45179 | 39.95586 | 91 ft | 11 kts | 211° |
| 2026-05-07 21:13 | 43.45115 | 39.95537 | 93 ft | 10 kts | 209° |
| 2026-05-07 21:13 | 43.45061 | 39.95475 | 91 ft | 10 kts | 240° |
| 2026-05-07 21:14 | 43.45029 | 39.95384 | 88 ft | 11 kts | 245° |
| 2026-05-07 21:14 | 43.44994 | 39.95279 | 87 ft | 13 kts | 245° |
| 2026-05-07 21:14 | 43.44953 | 39.95160 | 84 ft | 15 kts | 244° |
| 2026-05-07 21:14 | 43.44904 | 39.95027 | 74 ft | 16 kts | 245° |
| 2026-05-07 21:15 | 43.44855 | 39.94881 | 75 ft | 18 kts | 245° |
| 2026-05-07 21:15 | 43.44803 | 39.94727 | 74 ft | 17 kts | 245° |
| 2026-05-07 21:15 | 43.44752 | 39.94579 | 69 ft | 17 kts | 245° |
| 2026-05-07 21:15 | 43.44714 | 39.94467 | 70 ft | 6 kts | 246° |
| 2026-05-07 21:16 | 43.44714 | 39.94445 | 72 ft | 2 kts | 291° |
| 2026-05-07 21:16 | 43.44722 | 39.94436 | 66 ft | 1 kts | 325° |
| 2026-05-07 21:16 | 43.44731 | 39.94428 | 71 ft | 1 kts | 328° |
| 2026-05-07 21:16 | 43.44739 | 39.94422 | 69 ft | 1 kts | 332° |
| 2026-05-07 21:17 | 43.44754 | 39.94412 | 70 ft | 3 kts | 334° |
| 2026-05-07 21:17 | 43.44781 | 39.94394 | 68 ft | 5 kts | 335° |
| 2026-05-07 21:17 | 43.44801 | 39.94381 | 69 ft | 1 kts | 335° |
| 2026-05-07 21:17 | 43.44809 | 39.94376 | 66 ft | 1 kts | 335° |
| 2026-05-07 21:18 | 43.44811 | 39.94375 | 67 ft | 0 kts | 335° |